sensor_id;sensor_type;location;lat;lon;timestamp;pressure;altitude;pressure_sealevel;temperature;humidity
79127;BME280;68528;48.814;8.904;2023-09-07T00:00:48;96737.91;;;12.83;86.28
79127;BME280;68528;48.814;8.904;2023-09-07T00:03:14;96737.00;;;12.75;86.14
79127;BME280;68528;48.814;8.904;2023-09-07T00:05:39;96736.88;;;12.68;86.02
79127;BME280;68528;48.814;8.904;2023-09-07T00:08:05;96743.19;;;12.69;85.93
79127;BME280;68528;48.814;8.904;2023-09-07T00:10:32;96737.56;;;12.61;85.56
79127;BME280;68528;48.814;8.904;2023-09-07T00:13:23;96745.00;;;12.61;85.88
79127;BME280;68528;48.814;8.904;2023-09-07T00:15:49;96743.09;;;12.65;86.32
79127;BME280;68528;48.814;8.904;2023-09-07T00:18:14;96738.78;;;12.64;86.07
79127;BME280;68528;48.814;8.904;2023-09-07T00:20:41;96739.03;;;12.55;86.56
79127;BME280;68528;48.814;8.904;2023-09-07T00:23:06;96734.22;;;12.49;87.25
79127;BME280;68528;48.814;8.904;2023-09-07T00:25:31;96732.25;;;12.46;86.70
79127;BME280;68528;48.814;8.904;2023-09-07T00:27:57;96731.88;;;12.47;86.52
79127;BME280;68528;48.814;8.904;2023-09-07T00:30:26;96742.44;;;12.45;86.60
79127;BME280;68528;48.814;8.904;2023-09-07T00:33:13;96735.66;;;12.39;86.90
79127;BME280;68528;48.814;8.904;2023-09-07T00:35:40;96732.13;;;12.39;86.96
79127;BME280;68528;48.814;8.904;2023-09-07T00:38:05;96737.78;;;12.49;86.81
79127;BME280;68528;48.814;8.904;2023-09-07T00:40:30;96734.97;;;12.46;86.46
79127;BME280;68528;48.814;8.904;2023-09-07T00:42:56;96730.88;;;12.36;86.79
79127;BME280;68528;48.814;8.904;2023-09-07T00:45:21;96734.34;;;12.33;86.28
79127;BME280;68528;48.814;8.904;2023-09-07T00:47:47;96730.41;;;12.31;86.71
79127;BME280;68528;48.814;8.904;2023-09-07T00:50:14;96730.09;;;12.36;86.66
79127;BME280;68528;48.814;8.904;2023-09-07T00:52:45;96727.72;;;12.34;86.46
79127;BME280;68528;48.814;8.904;2023-09-07T00:55:12;96729.00;;;12.40;86.46
79127;BME280;68528;48.814;8.904;2023-09-07T00:57:38;96727.34;;;12.36;86.67
79127;BME280;68528;48.814;8.904;2023-09-07T01:00:08;96728.00;;;12.29;86.75
79127;BME280;68528;48.814;8.904;2023-09-07T01:02:34;96735.41;;;12.25;86.58
79127;BME280;68528;48.814;8.904;2023-09-07T01:05:02;96722.72;;;12.17;86.74
79127;BME280;68528;48.814;8.904;2023-09-07T01:07:54;96726.13;;;12.11;86.86
79127;BME280;68528;48.814;8.904;2023-09-07T01:10:22;96726.88;;;12.08;87.06
79127;BME280;68528;48.814;8.904;2023-09-07T01:12:50;96731.06;;;12.02;87.41
79127;BME280;68528;48.814;8.904;2023-09-07T01:15:15;96721.13;;;11.94;87.87
79127;BME280;68528;48.814;8.904;2023-09-07T01:17:43;96721.50;;;11.92;87.88
79127;BME280;68528;48.814;8.904;2023-09-07T01:20:09;96717.59;;;11.93;88.39
79127;BME280;68528;48.814;8.904;2023-09-07T01:22:36;96726.97;;;11.92;88.12
79127;BME280;68528;48.814;8.904;2023-09-07T01:25:23;96725.47;;;11.95;88.18
79127;BME280;68528;48.814;8.904;2023-09-07T01:27:54;96723.81;;;11.90;88.23
79127;BME280;68528;48.814;8.904;2023-09-07T01:30:40;96721.06;;;11.90;88.38
79127;BME280;68528;48.814;8.904;2023-09-07T01:33:07;96717.84;;;11.85;88.01
79127;BME280;68528;48.814;8.904;2023-09-07T01:35:34;96722.16;;;11.86;88.33
79127;BME280;68528;48.814;8.904;2023-09-07T01:38:00;96719.78;;;11.84;88.36
79127;BME280;68528;48.814;8.904;2023-09-07T01:40:26;96720.44;;;11.77;88.09
79127;BME280;68528;48.814;8.904;2023-09-07T01:42:51;96714.91;;;11.74;88.14
79127;BME280;68528;48.814;8.904;2023-09-07T01:45:18;96722.81;;;11.79;87.96
79127;BME280;68528;48.814;8.904;2023-09-07T01:47:44;96714.38;;;11.68;88.39
79127;BME280;68528;48.814;8.904;2023-09-07T01:50:10;96723.41;;;11.69;88.55
79127;BME280;68528;48.814;8.904;2023-09-07T01:52:35;96727.31;;;11.68;88.80
79127;BME280;68528;48.814;8.904;2023-09-07T01:55:00;96715.44;;;11.64;88.88
79127;BME280;68528;48.814;8.904;2023-09-07T01:57:26;96717.69;;;11.58;88.61
79127;BME280;68528;48.814;8.904;2023-09-07T01:59:51;96718.78;;;11.54;88.74
79127;BME280;68528;48.814;8.904;2023-09-07T02:02:17;96719.63;;;11.58;89.37
79127;BME280;68528;48.814;8.904;2023-09-07T02:05:02;96724.69;;;11.56;89.30
79127;BME280;68528;48.814;8.904;2023-09-07T02:07:28;96720.59;;;11.46;89.07
79127;BME280;68528;48.814;8.904;2023-09-07T02:09:54;96720.59;;;11.46;89.06
79127;BME280;68528;48.814;8.904;2023-09-07T02:12:20;96711.16;;;11.44;89.71
79127;BME280;68528;48.814;8.904;2023-09-07T02:14:45;96716.56;;;11.40;89.31
79127;BME280;68528;48.814;8.904;2023-09-07T02:17:11;96715.78;;;11.40;89.61
79127;BME280;68528;48.814;8.904;2023-09-07T02:19:39;96722.81;;;11.41;89.45
79127;BME280;68528;48.814;8.904;2023-09-07T02:22:39;96721.31;;;11.43;89.57
79127;BME280;68528;48.814;8.904;2023-09-07T02:25:06;96720.44;;;11.39;89.59
79127;BME280;68528;48.814;8.904;2023-09-07T02:27:33;96725.72;;;11.29;89.80
79127;BME280;68528;48.814;8.904;2023-09-07T02:29:59;96723.41;;;11.31;89.47
79127;BME280;68528;48.814;8.904;2023-09-07T02:32:24;96716.34;;;11.30;90.24
79127;BME280;68528;48.814;8.904;2023-09-07T02:34:50;96714.03;;;11.32;90.39
79127;BME280;68528;48.814;8.904;2023-09-07T02:37:15;96711.00;;;11.37;90.23
79127;BME280;68528;48.814;8.904;2023-09-07T02:39:43;96715.34;;;11.38;89.86
79127;BME280;68528;48.814;8.904;2023-09-07T02:42:08;96717.50;;;11.29;90.11
79127;BME280;68528;48.814;8.904;2023-09-07T02:44:35;96712.72;;;11.26;90.12
79127;BME280;68528;48.814;8.904;2023-09-07T02:47:01;96717.00;;;11.23;90.42
79127;BME280;68528;48.814;8.904;2023-09-07T02:49:27;96713.94;;;11.28;90.54
79127;BME280;68528;48.814;8.904;2023-09-07T02:51:52;96713.53;;;11.26;90.75
79127;BME280;68528;48.814;8.904;2023-09-07T02:54:17;96717.66;;;11.17;90.38
79127;BME280;68528;48.814;8.904;2023-09-07T02:56:43;96721.47;;;11.12;90.62
79127;BME280;68528;48.814;8.904;2023-09-07T02:59:31;96715.00;;;11.04;91.18
79127;BME280;68528;48.814;8.904;2023-09-07T03:01:56;96716.13;;;11.00;91.80
79127;BME280;68528;48.814;8.904;2023-09-07T03:19:04;96706.28;;;10.99;91.46
79127;BME280;68528;48.814;8.904;2023-09-07T03:21:30;96703.19;;;11.00;91.51
79127;BME280;68528;48.814;8.904;2023-09-07T03:23:58;96699.16;;;10.94;91.22
79127;BME280;68528;48.814;8.904;2023-09-07T03:26:23;96699.88;;;10.91;90.75
79127;BME280;68528;48.814;8.904;2023-09-07T03:28:49;96699.00;;;10.87;90.86
79127;BME280;68528;48.814;8.904;2023-09-07T03:31:15;96691.00;;;10.79;90.67
79127;BME280;68528;48.814;8.904;2023-09-07T03:33:40;96692.50;;;10.76;91.20
79127;BME280;68528;48.814;8.904;2023-09-07T03:36:07;96697.81;;;10.69;91.41
79127;BME280;68528;48.814;8.904;2023-09-07T03:38:52;96695.50;;;10.71;91.82
79127;BME280;68528;48.814;8.904;2023-09-07T03:41:17;96693.22;;;10.73;91.91
79127;BME280;68528;48.814;8.904;2023-09-07T03:43:43;96694.88;;;10.78;91.72
79127;BME280;68528;48.814;8.904;2023-09-07T03:46:08;96698.41;;;10.78;91.82
79127;BME280;68528;48.814;8.904;2023-09-07T03:48:33;96697.97;;;10.76;91.67
79127;BME280;68528;48.814;8.904;2023-09-07T03:51:19;96697.97;;;10.76;91.96
79127;BME280;68528;48.814;8.904;2023-09-07T03:53:46;96697.88;;;10.73;92.26
79127;BME280;68528;48.814;8.904;2023-09-07T03:56:12;96702.59;;;10.72;92.38
79127;BME280;68528;48.814;8.904;2023-09-07T03:58:37;96695.00;;;10.66;92.26
79127;BME280;68528;48.814;8.904;2023-09-07T04:01:03;96697.66;;;10.62;92.59
79127;BME280;68528;48.814;8.904;2023-09-07T04:03:29;96691.94;;;10.52;92.90
79127;BME280;68528;48.814;8.904;2023-09-07T04:05:55;96703.53;;;10.45;93.90
79127;BME280;68528;48.814;8.904;2023-09-07T04:08:20;96689.47;;;10.47;93.89
79127;BME280;68528;48.814;8.904;2023-09-07T04:13:12;96686.56;;;10.55;93.29
79127;BME280;68528;48.814;8.904;2023-09-07T04:15:44;96696.69;;;10.55;92.90
79127;BME280;68528;48.814;8.904;2023-09-07T04:18:11;96699.63;;;10.62;93.09
79127;BME280;68528;48.814;8.904;2023-09-07T04:20:38;96701.03;;;10.56;92.41
79127;BME280;68528;48.814;8.904;2023-09-07T04:23:04;96692.22;;;10.47;92.38
79127;BME280;68528;48.814;8.904;2023-09-07T04:25:30;96692.59;;;10.45;92.49
79127;BME280;68528;48.814;8.904;2023-09-07T04:27:55;96697.97;;;10.42;92.86
79127;BME280;68528;48.814;8.904;2023-09-07T04:30:26;96694.09;;;10.43;93.84
79127;BME280;68528;48.814;8.904;2023-09-07T04:32:55;96691.59;;;10.38;93.21
79127;BME280;68528;48.814;8.904;2023-09-07T04:35:20;96686.94;;;10.38;93.23
79127;BME280;68528;48.814;8.904;2023-09-07T04:37:46;96691.53;;;10.34;92.99
79127;BME280;68528;48.814;8.904;2023-09-07T04:40:11;96696.28;;;10.37;93.32
79127;BME280;68528;48.814;8.904;2023-09-07T04:42:37;96697.72;;;10.31;93.80
79127;BME280;68528;48.814;8.904;2023-09-07T04:45:06;96705.47;;;10.29;93.79
79127;BME280;68528;48.814;8.904;2023-09-07T04:47:31;96697.63;;;10.27;93.93
79127;BME280;68528;48.814;8.904;2023-09-07T04:49:57;96702.31;;;10.27;94.07
79127;BME280;68528;48.814;8.904;2023-09-07T04:52:23;96702.75;;;10.29;94.48
79127;BME280;68528;48.814;8.904;2023-09-07T04:54:49;96699.19;;;10.28;94.15
79127;BME280;68528;48.814;8.904;2023-09-07T04:57:16;96699.56;;;10.27;93.61
79127;BME280;68528;48.814;8.904;2023-09-07T04:59:42;96705.84;;;10.27;93.73
79127;BME280;68528;48.814;8.904;2023-09-07T05:02:08;96710.06;;;10.25;94.01
79127;BME280;68528;48.814;8.904;2023-09-07T05:04:34;96710.97;;;10.29;94.55
79127;BME280;68528;48.814;8.904;2023-09-07T05:06:59;96696.94;;;10.31;94.22
79127;BME280;68528;48.814;8.904;2023-09-07T05:09:25;96697.00;;;10.34;93.60
79127;BME280;68528;48.814;8.904;2023-09-07T05:11:51;96702.41;;;10.31;93.77
79127;BME280;68528;48.814;8.904;2023-09-07T05:14:18;96691.34;;;10.27;93.74
79127;BME280;68528;48.814;8.904;2023-09-07T05:16:43;96689.78;;;10.26;94.00
79127;BME280;68528;48.814;8.904;2023-09-07T05:19:09;96695.25;;;10.26;94.80
79127;BME280;68528;48.814;8.904;2023-09-07T05:21:34;96700.00;;;10.29;94.31
79127;BME280;68528;48.814;8.904;2023-09-07T05:24:09;96700.88;;;10.33;94.37
79127;BME280;68528;48.814;8.904;2023-09-07T05:26:35;96700.34;;;10.43;94.33
79127;BME280;68528;48.814;8.904;2023-09-07T05:29:00;96710.59;;;10.46;95.16
79127;BME280;68528;48.814;8.904;2023-09-07T05:31:25;96712.19;;;10.47;94.81
79127;BME280;68528;48.814;8.904;2023-09-07T05:33:51;96721.28;;;10.51;95.12
79127;BME280;68528;48.814;8.904;2023-09-07T05:36:17;96711.28;;;10.59;95.34
79127;BME280;68528;48.814;8.904;2023-09-07T05:38:43;96719.22;;;10.64;94.90
79127;BME280;68528;48.814;8.904;2023-09-07T05:41:08;96719.72;;;10.69;94.52
79127;BME280;68528;48.814;8.904;2023-09-07T05:43:33;96715.28;;;10.80;94.51
79127;BME280;68528;48.814;8.904;2023-09-07T05:45:59;96716.31;;;10.91;94.64
79127;BME280;68528;48.814;8.904;2023-09-07T05:48:24;96725.41;;;10.95;94.67
79127;BME280;68528;48.814;8.904;2023-09-07T05:50:50;96720.59;;;11.08;95.39
79127;BME280;68528;48.814;8.904;2023-09-07T05:53:15;96718.06;;;11.57;94.46
79127;BME280;68528;48.814;8.904;2023-09-07T05:55:40;96725.84;;;12.16;93.54
79127;BME280;68528;48.814;8.904;2023-09-07T05:58:07;96719.00;;;12.78;91.24
79127;BME280;68528;48.814;8.904;2023-09-07T06:00:38;96724.53;;;13.37;89.09
79127;BME280;68528;48.814;8.904;2023-09-07T06:03:05;96720.41;;;13.87;87.45
79127;BME280;68528;48.814;8.904;2023-09-07T06:05:31;96713.81;;;14.39;85.43
79127;BME280;68528;48.814;8.904;2023-09-07T06:07:57;96716.53;;;14.82;84.46
79127;BME280;68528;48.814;8.904;2023-09-07T06:10:22;96725.44;;;15.23;82.90
79127;BME280;68528;48.814;8.904;2023-09-07T06:12:48;96715.38;;;15.55;80.60
79127;BME280;68528;48.814;8.904;2023-09-07T06:15:13;96706.03;;;16.06;78.57
79127;BME280;68528;48.814;8.904;2023-09-07T06:17:39;96698.97;;;16.40;76.87
79127;BME280;68528;48.814;8.904;2023-09-07T06:20:05;96707.28;;;16.61;77.03
79127;BME280;68528;48.814;8.904;2023-09-07T06:22:53;96703.31;;;16.83;75.77
79127;BME280;68528;48.814;8.904;2023-09-07T06:25:20;96708.81;;;17.11;74.98
79127;BME280;68528;48.814;8.904;2023-09-07T06:27:47;96711.50;;;17.40;75.23
79127;BME280;68528;48.814;8.904;2023-09-07T06:30:12;96714.59;;;17.63;73.43
79127;BME280;68528;48.814;8.904;2023-09-07T06:32:38;96712.88;;;17.90;73.46
79127;BME280;68528;48.814;8.904;2023-09-07T06:35:04;96711.88;;;18.28;71.99
79127;BME280;68528;48.814;8.904;2023-09-07T06:37:35;96715.59;;;18.62;71.78
79127;BME280;68528;48.814;8.904;2023-09-07T06:40:02;96714.97;;;18.89;71.85
79127;BME280;68528;48.814;8.904;2023-09-07T06:42:29;96717.38;;;19.27;69.90
79127;BME280;68528;48.814;8.904;2023-09-07T06:44:56;96720.06;;;19.72;68.42
79127;BME280;68528;48.814;8.904;2023-09-07T06:47:21;96715.72;;;20.27;63.00
79127;BME280;68528;48.814;8.904;2023-09-07T06:49:46;96721.25;;;20.81;60.61
79127;BME280;68528;48.814;8.904;2023-09-07T06:52:12;96724.31;;;21.13;59.83
79127;BME280;68528;48.814;8.904;2023-09-07T06:54:38;96725.34;;;21.42;60.57
79127;BME280;68528;48.814;8.904;2023-09-07T06:57:07;96726.25;;;21.78;59.95
79127;BME280;68528;48.814;8.904;2023-09-07T06:59:33;96722.13;;;21.86;61.60
79127;BME280;68528;48.814;8.904;2023-09-07T07:01:59;96729.56;;;22.29;57.82
79127;BME280;68528;48.814;8.904;2023-09-07T07:04:25;96732.81;;;22.43;55.97
79127;BME280;68528;48.814;8.904;2023-09-07T07:06:51;96731.47;;;22.84;57.66
79127;BME280;68528;48.814;8.904;2023-09-07T07:09:16;96730.94;;;22.21;57.97
79127;BME280;68528;48.814;8.904;2023-09-07T07:11:42;96726.97;;;22.54;57.91
79127;BME280;68528;48.814;8.904;2023-09-07T07:14:09;96732.81;;;22.43;57.56
79127;BME280;68528;48.814;8.904;2023-09-07T07:16:36;96740.38;;;23.11;56.18
79127;BME280;68528;48.814;8.904;2023-09-07T07:19:01;96742.47;;;23.68;53.00
79127;BME280;68528;48.814;8.904;2023-09-07T07:21:26;96746.41;;;23.99;51.90
79127;BME280;68528;48.814;8.904;2023-09-07T07:23:52;96747.63;;;24.39;50.66
79127;BME280;68528;48.814;8.904;2023-09-07T07:26:17;96748.28;;;24.18;51.28
79127;BME280;68528;48.814;8.904;2023-09-07T07:28:43;96741.88;;;24.17;52.24
79127;BME280;68528;48.814;8.904;2023-09-07T07:31:09;96741.91;;;24.01;52.65
79127;BME280;68528;48.814;8.904;2023-09-07T07:33:35;96733.72;;;24.36;52.26
79127;BME280;68528;48.814;8.904;2023-09-07T07:36:05;96735.00;;;24.85;48.01
79127;BME280;68528;48.814;8.904;2023-09-07T07:38:41;96726.75;;;25.16;51.16
79127;BME280;68528;48.814;8.904;2023-09-07T07:41:06;96738.66;;;24.69;50.95
79127;BME280;68528;48.814;8.904;2023-09-07T07:43:32;96735.78;;;24.60;51.99
79127;BME280;68528;48.814;8.904;2023-09-07T07:45:59;96723.13;;;24.81;51.98
79127;BME280;68528;48.814;8.904;2023-09-07T07:48:25;96720.97;;;24.72;51.40
79127;BME280;68528;48.814;8.904;2023-09-07T07:50:50;96731.25;;;25.01;52.07
79127;BME280;68528;48.814;8.904;2023-09-07T07:53:24;96723.16;;;25.28;52.67
79127;BME280;68528;48.814;8.904;2023-09-07T07:55:49;96721.31;;;24.87;50.61
79127;BME280;68528;48.814;8.904;2023-09-07T07:58:15;96719.00;;;25.20;50.53
79127;BME280;68528;48.814;8.904;2023-09-07T08:00:40;96716.31;;;25.63;47.14
79127;BME280;68528;48.814;8.904;2023-09-07T08:03:13;96714.25;;;25.76;46.13
79127;BME280;68528;48.814;8.904;2023-09-07T08:05:39;96709.84;;;25.75;48.95
79127;BME280;68528;48.814;8.904;2023-09-07T08:08:05;96719.81;;;25.08;49.06
79127;BME280;68528;48.814;8.904;2023-09-07T08:10:36;96716.28;;;25.29;49.95
79127;BME280;68528;48.814;8.904;2023-09-07T08:13:08;96712.34;;;25.73;48.27
79127;BME280;68528;48.814;8.904;2023-09-07T08:15:34;96711.88;;;25.75;48.73
79127;BME280;68528;48.814;8.904;2023-09-07T08:18:00;96714.69;;;25.96;49.12
79127;BME280;68528;48.814;8.904;2023-09-07T08:20:26;96717.91;;;26.69;48.58
79127;BME280;68528;48.814;8.904;2023-09-07T08:22:51;96719.06;;;26.50;48.36
79127;BME280;68528;48.814;8.904;2023-09-07T08:25:18;96723.69;;;27.05;45.23
79127;BME280;68528;48.814;8.904;2023-09-07T08:27:43;96715.66;;;26.85;48.16
79127;BME280;68528;48.814;8.904;2023-09-07T08:30:11;96713.34;;;27.02;47.71
79127;BME280;68528;48.814;8.904;2023-09-07T08:32:37;96715.03;;;27.39;47.09
79127;BME280;68528;48.814;8.904;2023-09-07T08:35:04;96715.53;;;26.58;47.84
79127;BME280;68528;48.814;8.904;2023-09-07T08:37:33;96720.16;;;26.74;48.31
79127;BME280;68528;48.814;8.904;2023-09-07T08:40:00;96718.81;;;26.66;46.04
79127;BME280;68528;48.814;8.904;2023-09-07T08:42:25;96718.50;;;27.03;48.48
79127;BME280;68528;48.814;8.904;2023-09-07T08:44:53;96722.16;;;27.31;44.85
79127;BME280;68528;48.814;8.904;2023-09-07T08:47:40;96722.84;;;27.44;44.88
79127;BME280;68528;48.814;8.904;2023-09-07T08:50:06;96726.59;;;27.50;46.71
79127;BME280;68528;48.814;8.904;2023-09-07T08:52:37;96729.72;;;27.88;45.72
79127;BME280;68528;48.814;8.904;2023-09-07T08:55:05;96724.38;;;28.18;46.53
79127;BME280;68528;48.814;8.904;2023-09-07T08:57:33;96719.56;;;28.69;40.91
79127;BME280;68528;48.814;8.904;2023-09-07T09:00:00;96723.97;;;28.52;44.36
79127;BME280;68528;48.814;8.904;2023-09-07T09:02:26;96728.78;;;27.91;42.82
79127;BME280;68528;48.814;8.904;2023-09-07T09:04:52;96726.44;;;28.17;42.79
79127;BME280;68528;48.814;8.904;2023-09-07T09:07:18;96734.41;;;28.28;43.85
79127;BME280;68528;48.814;8.904;2023-09-07T09:09:44;96722.56;;;28.98;38.73
79127;BME280;68528;48.814;8.904;2023-09-07T09:12:12;96733.41;;;29.23;45.42
79127;BME280;68528;48.814;8.904;2023-09-07T09:14:42;96728.38;;;28.53;45.33
79127;BME280;68528;48.814;8.904;2023-09-07T09:17:11;96724.22;;;28.81;43.93
79127;BME280;68528;48.814;8.904;2023-09-07T09:19:38;96728.06;;;28.60;44.96
79127;BME280;68528;48.814;8.904;2023-09-07T09:22:04;96723.41;;;29.22;43.05
79127;BME280;68528;48.814;8.904;2023-09-07T09:25:07;96724.09;;;28.76;42.50
79127;BME280;68528;48.814;8.904;2023-09-07T09:27:57;96727.78;;;28.91;39.77
79127;BME280;68528;48.814;8.904;2023-09-07T09:32:58;96706.34;;;29.40;41.52
79127;BME280;68528;48.814;8.904;2023-09-07T09:35:24;96707.03;;;29.74;40.01
79127;BME280;68528;48.814;8.904;2023-09-07T09:38:01;96697.94;;;29.93;41.01
79127;BME280;68528;48.814;8.904;2023-09-07T09:43:46;96702.03;;;29.78;42.96
79127;BME280;68528;48.814;8.904;2023-09-07T09:46:14;96700.91;;;30.28;40.73
79127;BME280;68528;48.814;8.904;2023-09-07T09:48:41;96702.28;;;29.09;41.92
79127;BME280;68528;48.814;8.904;2023-09-07T09:51:07;96708.91;;;28.73;44.10
79127;BME280;68528;48.814;8.904;2023-09-07T09:53:33;96703.88;;;28.77;42.59
79127;BME280;68528;48.814;8.904;2023-09-07T09:55:58;96701.31;;;28.46;41.75
79127;BME280;68528;48.814;8.904;2023-09-07T09:58:24;96703.66;;;28.48;45.39
79127;BME280;68528;48.814;8.904;2023-09-07T10:00:53;96699.63;;;28.82;43.20
79127;BME280;68528;48.814;8.904;2023-09-07T10:06:19;96702.56;;;29.67;40.93
79127;BME280;68528;48.814;8.904;2023-09-07T10:08:59;96702.66;;;30.40;36.88
79127;BME280;68528;48.814;8.904;2023-09-07T10:11:29;96696.69;;;29.94;38.67
79127;BME280;68528;48.814;8.904;2023-09-07T10:14:01;96704.97;;;29.98;39.83
79127;BME280;68528;48.814;8.904;2023-09-07T10:16:28;96706.91;;;29.92;40.08
79127;BME280;68528;48.814;8.904;2023-09-07T10:19:17;96698.66;;;29.65;41.19
79127;BME280;68528;48.814;8.904;2023-09-07T10:21:45;96704.75;;;29.25;40.05
79127;BME280;68528;48.814;8.904;2023-09-07T10:24:33;96699.25;;;29.69;41.97
79127;BME280;68528;48.814;8.904;2023-09-07T10:27:02;96695.56;;;30.30;38.46
79127;BME280;68528;48.814;8.904;2023-09-07T10:29:28;96694.97;;;30.11;39.95
79127;BME280;68528;48.814;8.904;2023-09-07T10:31:54;96695.94;;;29.70;40.13
79127;BME280;68528;48.814;8.904;2023-09-07T10:34:21;96685.69;;;29.96;41.09
79127;BME280;68528;48.814;8.904;2023-09-07T10:36:47;96679.84;;;30.29;38.44
79127;BME280;68528;48.814;8.904;2023-09-07T10:39:20;96679.03;;;30.72;39.00
79127;BME280;68528;48.814;8.904;2023-09-07T10:41:48;96671.06;;;30.56;40.02
79127;BME280;68528;48.814;8.904;2023-09-07T10:44:13;96674.19;;;30.29;37.68
79127;BME280;68528;48.814;8.904;2023-09-07T10:46:39;96684.34;;;30.36;37.28
79127;BME280;68528;48.814;8.904;2023-09-07T10:49:07;96678.75;;;30.12;41.16
79127;BME280;68528;48.814;8.904;2023-09-07T10:51:40;96679.16;;;30.05;38.40
79127;BME280;68528;48.814;8.904;2023-09-07T10:54:23;96673.69;;;30.74;36.16
79127;BME280;68528;48.814;8.904;2023-09-07T10:56:49;96677.09;;;29.91;37.55
79127;BME280;68528;48.814;8.904;2023-09-07T11:01:52;96670.59;;;30.58;37.15
79127;BME280;68528;48.814;8.904;2023-09-07T11:04:20;96666.50;;;29.86;39.98
79127;BME280;68528;48.814;8.904;2023-09-07T11:14:34;96660.31;;;29.73;39.71
79127;BME280;68528;48.814;8.904;2023-09-07T11:17:02;96656.16;;;30.12;37.70
79127;BME280;68528;48.814;8.904;2023-09-07T11:19:32;96662.47;;;29.39;39.40
79127;BME280;68528;48.814;8.904;2023-09-07T11:22:02;96663.41;;;29.13;43.34
79127;BME280;68528;48.814;8.904;2023-09-07T11:24:29;96655.72;;;29.61;38.53
79127;BME280;68528;48.814;8.904;2023-09-07T11:26:57;96649.75;;;30.26;36.85
79127;BME280;68528;48.814;8.904;2023-09-07T11:29:22;96658.25;;;30.41;43.76
79127;BME280;68528;48.814;8.904;2023-09-07T11:31:48;96656.13;;;29.68;38.60
79127;BME280;68528;48.814;8.904;2023-09-07T11:34:15;96651.72;;;29.05;40.95
79127;BME280;68528;48.814;8.904;2023-09-07T11:36:42;96653.06;;;29.19;39.15
79127;BME280;68528;48.814;8.904;2023-09-07T11:39:08;96652.19;;;28.80;42.29
79127;BME280;68528;48.814;8.904;2023-09-07T11:41:45;96657.56;;;28.27;43.06
79127;BME280;68528;48.814;8.904;2023-09-07T11:44:11;96664.84;;;28.43;42.22
79127;BME280;68528;48.814;8.904;2023-09-07T11:46:37;96662.78;;;28.61;41.29
79127;BME280;68528;48.814;8.904;2023-09-07T11:49:02;96666.84;;;29.40;40.79
79127;BME280;68528;48.814;8.904;2023-09-07T11:51:30;96649.56;;;29.47;41.30
79127;BME280;68528;48.814;8.904;2023-09-07T11:54:19;96647.09;;;29.40;41.20
79127;BME280;68528;48.814;8.904;2023-09-07T11:57:00;96647.91;;;30.08;37.47
79127;BME280;68528;48.814;8.904;2023-09-07T11:59:25;96651.16;;;29.63;39.82
79127;BME280;68528;48.814;8.904;2023-09-07T12:01:51;96649.97;;;29.70;39.53
79127;BME280;68528;48.814;8.904;2023-09-07T12:04:16;96651.63;;;29.00;43.04
79127;BME280;68528;48.814;8.904;2023-09-07T12:06:41;96635.56;;;29.68;38.82
79127;BME280;68528;48.814;8.904;2023-09-07T12:09:08;96645.72;;;29.74;40.19
79127;BME280;68528;48.814;8.904;2023-09-07T12:11:34;96641.03;;;29.57;42.03
79127;BME280;68528;48.814;8.904;2023-09-07T12:14:00;96646.97;;;29.20;41.00
79127;BME280;68528;48.814;8.904;2023-09-07T12:16:26;96638.03;;;29.13;43.26
79127;BME280;68528;48.814;8.904;2023-09-07T12:18:52;96639.09;;;29.24;43.48
79127;BME280;68528;48.814;8.904;2023-09-07T12:21:18;96643.09;;;29.71;39.06
79127;BME280;68528;48.814;8.904;2023-09-07T12:23:44;96643.41;;;29.34;40.53
79127;BME280;68528;48.814;8.904;2023-09-07T12:26:12;96643.00;;;28.29;43.23
79127;BME280;68528;48.814;8.904;2023-09-07T12:28:38;96645.59;;;28.09;42.73
79127;BME280;68528;48.814;8.904;2023-09-07T12:31:21;96641.75;;;28.30;42.78
79127;BME280;68528;48.814;8.904;2023-09-07T12:33:48;96627.53;;;29.13;39.56
79127;BME280;68528;48.814;8.904;2023-09-07T12:36:13;96638.88;;;28.39;42.53
79127;BME280;68528;48.814;8.904;2023-09-07T12:38:40;96643.81;;;28.62;43.78
79127;BME280;68528;48.814;8.904;2023-09-07T12:41:05;96636.66;;;29.08;40.94
79127;BME280;68528;48.814;8.904;2023-09-07T12:43:34;96625.50;;;29.37;39.47
79127;BME280;68528;48.814;8.904;2023-09-07T12:46:34;96626.63;;;28.60;41.97
79127;BME280;68528;48.814;8.904;2023-09-07T12:49:00;96644.31;;;28.60;42.08
79127;BME280;68528;48.814;8.904;2023-09-07T12:51:25;96626.66;;;29.07;40.13
79127;BME280;68528;48.814;8.904;2023-09-07T12:53:51;96629.06;;;29.23;41.19
79127;BME280;68528;48.814;8.904;2023-09-07T12:56:16;96633.94;;;28.25;41.59
79127;BME280;68528;48.814;8.904;2023-09-07T12:58:43;96632.25;;;28.60;43.49
79127;BME280;68528;48.814;8.904;2023-09-07T13:01:09;96626.25;;;29.00;40.08
79127;BME280;68528;48.814;8.904;2023-09-07T13:03:37;96624.00;;;28.47;41.12
79127;BME280;68528;48.814;8.904;2023-09-07T13:06:02;96616.44;;;28.86;41.55
79127;BME280;68528;48.814;8.904;2023-09-07T13:08:28;96626.53;;;29.25;39.73
79127;BME280;68528;48.814;8.904;2023-09-07T13:10:55;96612.31;;;29.20;41.79
79127;BME280;68528;48.814;8.904;2023-09-07T13:13:20;96616.63;;;29.06;39.89
79127;BME280;68528;48.814;8.904;2023-09-07T13:15:47;96617.34;;;28.92;41.35
79127;BME280;68528;48.814;8.904;2023-09-07T13:18:12;96626.13;;;28.20;43.93
79127;BME280;68528;48.814;8.904;2023-09-07T13:20:39;96628.72;;;28.00;43.45
79127;BME280;68528;48.814;8.904;2023-09-07T13:23:04;96622.94;;;27.94;44.39
79127;BME280;68528;48.814;8.904;2023-09-07T13:25:53;96623.75;;;27.67;43.91
79127;BME280;68528;48.814;8.904;2023-09-07T13:28:19;96622.63;;;27.92;44.66
79127;BME280;68528;48.814;8.904;2023-09-07T13:30:44;96609.31;;;28.02;43.92
79127;BME280;68528;48.814;8.904;2023-09-07T13:33:10;96620.97;;;28.27;44.75
79127;BME280;68528;48.814;8.904;2023-09-07T13:35:36;96608.78;;;28.54;44.56
79127;BME280;68528;48.814;8.904;2023-09-07T13:38:02;96613.94;;;28.23;41.77
79127;BME280;68528;48.814;8.904;2023-09-07T13:40:53;96611.03;;;27.99;42.03